createdAt,value
2018-07-10T00:04:38.165Z,100606.60
2018-07-10T00:07:52.466Z,100605.61
2018-07-10T00:10:39.616Z,100608.80
2018-07-10T00:13:09.412Z,100612.03
2018-07-10T00:15:39.078Z,100612.48
2018-07-10T00:18:08.814Z,100606.52
2018-07-10T00:20:38.463Z,100597.70
2018-07-10T00:23:08.126Z,100603.98
2018-07-10T00:25:37.758Z,100601.35
2018-07-10T00:28:07.395Z,100601.77
2018-07-10T00:30:37.501Z,100605.11
2018-07-10T00:33:07.133Z,100607.36
2018-07-10T00:35:37.365Z,100608.74
2018-07-10T00:38:23.807Z,100600.56
2018-07-10T00:40:53.508Z,100602.00
2018-07-10T00:43:23.287Z,100591.67
2018-07-10T00:45:52.923Z,100591.95
2018-07-10T00:48:22.567Z,100584.55
2018-07-10T00:50:52.247Z,100575.83
2018-07-10T00:53:21.881Z,100580.72
2018-07-10T00:55:51.590Z,100582.32
2018-07-10T00:58:21.225Z,100589.91
2018-07-10T01:00:53.408Z,100589.14
2018-07-10T01:03:23.613Z,100598.03
2018-07-10T01:05:53.281Z,100589.86
2018-07-10T01:08:22.951Z,100592.66
2018-07-10T01:11:07.354Z,100594.34
2018-07-10T01:13:37.315Z,100591.43
2018-07-10T01:16:07.061Z,100584.86
2018-07-10T01:18:43.963Z,100584.17
2018-07-10T01:21:20.641Z,100592.70
2018-07-10T01:23:56.952Z,100577.70
2018-07-10T01:26:27.812Z,100582.76
2018-07-10T01:29:02.135Z,100577.25
2018-07-10T01:31:31.768Z,100585.59
2018-07-10T01:34:01.519Z,100584.97
2018-07-10T01:36:31.169Z,100580.55
2018-07-10T01:39:00.907Z,100576.10
2018-07-10T01:41:30.874Z,100568.80
2018-07-10T01:44:00.517Z,100562.75
2018-07-10T01:46:30.289Z,100565.13
2018-07-10T01:49:00.025Z,100562.09
2018-07-10T01:51:30.883Z,100564.09
2018-07-10T01:54:01.229Z,100570.02
2018-07-10T01:56:31.333Z,100566.40
2018-07-10T01:59:01.253Z,100562.23
2018-07-10T02:01:30.926Z,100562.69
2018-07-10T02:04:01.898Z,100564.70
2018-07-10T02:06:31.899Z,100564.28
2018-07-10T02:09:01.522Z,100560.08
2018-07-10T02:11:31.322Z,100562.26
2018-07-10T02:14:01.083Z,100565.00
2018-07-10T02:16:30.926Z,100561.02
2018-07-10T02:19:00.651Z,100566.98
2018-07-10T02:21:30.569Z,100563.95
2018-07-10T02:24:00.380Z,100560.08
2018-07-10T02:26:30.396Z,100551.58
2018-07-10T02:29:00.049Z,100545.27
2018-07-10T02:31:29.919Z,100540.06
2018-07-10T02:33:59.611Z,100531.30
2018-07-10T02:36:29.697Z,100540.91
2018-07-10T02:39:01.131Z,100542.63
2018-07-10T02:41:31.013Z,100525.42
2018-07-10T02:44:05.706Z,100524.89
2018-07-10T02:46:38.340Z,100525.57
2018-07-10T02:49:19.128Z,100524.53
2018-07-10T02:51:54.093Z,100525.56
2018-07-10T02:54:26.556Z,100541.00
2018-07-10T02:56:58.032Z,100538.72
2018-07-10T02:59:37.353Z,100535.08
2018-07-10T03:02:25.684Z,100533.84
2018-07-10T03:05:04.704Z,100526.58
2018-07-10T03:07:37.008Z,100523.72
2018-07-10T03:10:06.621Z,100521.42
2018-07-10T03:12:37.062Z,100522.59
2018-07-10T03:15:13.582Z,100522.25
2018-07-10T03:17:43.301Z,100515.70
2018-07-10T03:20:13.019Z,100516.55
2018-07-10T03:22:42.740Z,100506.25
2018-07-10T03:25:12.360Z,100500.05
2018-07-10T03:27:42.046Z,100512.19
2018-07-10T03:30:11.737Z,100515.28
2018-07-10T03:32:41.512Z,100499.37
2018-07-10T03:35:11.148Z,100514.98
2018-07-10T03:37:41.999Z,100514.86
2018-07-10T03:40:12.072Z,100508.97
2018-07-10T03:42:41.950Z,100505.59
2018-07-10T03:45:12.605Z,100507.24
2018-07-10T03:47:42.600Z,100506.69
2018-07-10T03:50:12.271Z,100513.30
2018-07-10T03:52:44.283Z,100513.39
2018-07-10T03:55:17.760Z,100513.69
2018-07-10T03:57:49.426Z,100513.49
2018-07-10T04:00:19.397Z,100504.70
2018-07-10T04:02:51.791Z,100502.33
2018-07-10T04:05:24.089Z,100502.95
2018-07-10T04:07:57.361Z,100503.89
2018-07-10T04:10:30.723Z,100501.23
2018-07-10T04:13:11.645Z,100497.35
2018-07-10T04:15:42.858Z,100486.22
2018-07-10T04:18:15.500Z,100489.70
2018-07-10T04:21:00.411Z,100490.91
2018-07-10T04:23:38.427Z,100484.92
2018-07-10T04:26:22.672Z,100494.20
2018-07-10T04:29:05.655Z,100502.78
2018-07-10T04:32:08.551Z,100486.34
2018-07-10T04:34:38.186Z,100478.41
2018-07-10T04:37:14.797Z,100482.31
2018-07-10T04:39:46.076Z,100477.31
2018-07-10T04:42:25.357Z,100469.38
2018-07-10T04:45:15.439Z,100482.64
2018-07-10T04:47:57.784Z,100471.66
2018-07-10T04:50:32.814Z,100464.80
2018-07-10T04:53:21.949Z,100466.53
2018-07-10T04:55:51.573Z,100470.03
2018-07-10T04:58:22.282Z,100466.19
2018-07-10T05:00:58.213Z,100466.00
2018-07-10T05:03:29.570Z,100461.89
2018-07-10T05:06:04.979Z,100469.29
2018-07-10T05:08:34.647Z,100458.77
2018-07-10T05:11:04.350Z,100458.33
2018-07-10T05:13:34.033Z,100467.59
2018-07-10T05:16:06.259Z,100455.84
2018-07-10T05:18:36.555Z,100455.58
2018-07-10T05:21:13.272Z,100455.94
2018-07-10T05:23:43.373Z,100458.33
2018-07-10T05:26:17.600Z,100456.84
2018-07-10T05:28:51.448Z,100455.58
2018-07-10T05:31:21.045Z,100460.94
2018-07-10T05:33:51.902Z,100451.78
2018-07-10T05:36:23.801Z,100446.19
2018-07-10T05:39:05.846Z,100452.62
2018-07-10T05:41:41.534Z,100440.52
2018-07-10T05:44:11.185Z,100440.11
2018-07-10T05:46:40.905Z,100431.31
2018-07-10T05:49:10.650Z,100432.80
2018-07-10T05:51:52.947Z,100433.31
2018-07-10T05:54:24.041Z,100431.66
2018-07-10T05:56:54.339Z,100433.44
2018-07-10T05:59:23.987Z,100431.97
2018-07-10T06:01:54.054Z,100427.45
2018-07-10T06:04:23.940Z,100427.52
2018-07-10T06:06:53.875Z,100415.41
2018-07-10T06:09:23.591Z,100420.13
2018-07-10T06:11:53.454Z,100413.95
2018-07-10T06:14:23.360Z,100407.65
2018-07-10T06:16:53.444Z,100410.63
2018-07-10T06:19:23.200Z,100410.26
2018-07-10T06:21:54.053Z,100408.62
2018-07-10T06:24:27.698Z,100413.95
2018-07-10T06:27:03.100Z,100409.66
2018-07-10T06:29:48.954Z,100405.02
2018-07-10T06:32:21.084Z,100409.60
2018-07-10T06:35:07.755Z,100406.34
2018-07-10T06:37:41.514Z,100403.72
2018-07-10T06:40:11.207Z,100400.36
2018-07-10T06:43:56.317Z,100403.65
2018-07-10T06:46:46.952Z,100385.59
2018-07-10T06:49:34.562Z,100385.34
2018-07-10T06:52:14.578Z,100381.02
2018-07-10T06:55:17.545Z,100374.29
2018-07-10T06:57:54.706Z,100373.91
2018-07-10T07:00:24.939Z,100380.59
2018-07-10T07:02:54.821Z,100382.45
2018-07-10T07:05:25.140Z,100390.44
2018-07-10T07:07:55.073Z,100380.69
2018-07-10T07:10:25.921Z,100373.41
2018-07-10T07:12:55.535Z,100377.70
2018-07-10T07:15:25.388Z,100375.36
2018-07-10T07:17:55.178Z,100374.95
2018-07-10T07:20:24.951Z,100373.16
2018-07-10T07:22:54.752Z,100370.38
2018-07-10T07:25:24.542Z,100369.03
2018-07-10T07:27:54.293Z,100367.94
2018-07-10T07:30:24.168Z,100361.36
2018-07-10T07:32:53.992Z,100365.01
2018-07-10T07:35:23.794Z,100356.00
2018-07-10T07:37:53.611Z,100357.72
2018-07-10T07:40:23.503Z,100345.94
2018-07-10T07:42:53.341Z,100348.80
2018-07-10T07:45:23.404Z,100348.20
2018-07-10T07:47:53.607Z,100343.22
2018-07-10T07:50:23.596Z,100337.90
2018-07-10T07:52:53.712Z,100346.16
2018-07-10T07:55:23.448Z,100346.61
2018-07-10T07:57:53.088Z,100345.67
2018-07-10T08:00:22.804Z,100353.12
2018-07-10T08:02:52.670Z,100348.98
2018-07-10T08:05:22.369Z,100340.88
2018-07-10T08:07:52.053Z,100341.14
2018-07-10T08:10:21.860Z,100339.41
2018-07-10T08:12:51.528Z,100330.41
2018-07-10T08:15:21.221Z,100328.05
2018-07-10T08:17:51.020Z,100329.88
2018-07-10T08:20:20.849Z,100325.81
2018-07-10T08:22:51.801Z,100334.66
2018-07-10T08:25:22.967Z,100321.94
2018-07-10T08:27:52.678Z,100320.62
2018-07-10T08:30:22.347Z,100321.34
2018-07-10T08:32:53.308Z,100312.66
2018-07-10T08:35:23.114Z,100317.06
2018-07-10T08:37:53.526Z,100307.52
2018-07-10T08:40:23.268Z,100303.87
2018-07-10T08:42:52.917Z,100301.36
2018-07-10T08:45:23.367Z,100297.28
2018-07-10T08:47:53.209Z,100298.20
2018-07-10T08:50:23.495Z,100296.66
2018-07-10T08:52:53.265Z,100293.41
2018-07-10T08:55:22.943Z,100294.64
2018-07-10T08:57:52.669Z,100283.25
2018-07-10T09:00:22.655Z,100284.38
2018-07-10T09:02:52.371Z,100276.98
2018-07-10T09:05:22.096Z,100272.88
2018-07-10T09:07:53.172Z,100268.84
2018-07-10T09:10:23.201Z,100274.45
2018-07-10T09:12:53.624Z,100269.67
2018-07-10T09:15:23.475Z,100266.60
2018-07-10T09:17:53.217Z,100265.38
2018-07-10T09:20:28.955Z,100263.84
2018-07-10T09:22:58.643Z,100267.28
2018-07-10T09:25:29.293Z,100265.92
2018-07-10T09:27:59.378Z,100263.38
2018-07-10T09:30:29.660Z,100263.92
2018-07-10T09:32:59.513Z,100265.13
2018-07-10T09:35:29.269Z,100256.20
2018-07-10T09:37:59.029Z,100262.67
2018-07-10T09:40:28.732Z,100267.03
2018-07-10T09:43:04.121Z,100268.31
2018-07-10T09:45:37.277Z,100264.09
2018-07-10T09:48:08.047Z,100271.61
2018-07-10T09:50:37.883Z,100270.97
2018-07-10T09:53:07.818Z,100265.55
2018-07-10T09:55:37.532Z,100266.09
2018-07-10T09:58:08.394Z,100257.87
2018-07-10T10:00:43.719Z,100258.63
2018-07-10T10:03:13.430Z,100255.02
2018-07-10T10:05:45.127Z,100260.70
2018-07-10T10:08:14.792Z,100259.84
2018-07-10T10:10:44.612Z,100259.27
2018-07-10T10:13:14.322Z,100252.48
2018-07-10T10:15:44.031Z,100255.66
2018-07-10T10:18:13.865Z,100259.38
2018-07-10T10:20:43.596Z,100248.92
2018-07-10T10:23:14.673Z,100259.45
2018-07-10T10:25:52.407Z,100248.81
2018-07-10T10:28:25.746Z,100245.53
2018-07-10T10:30:55.634Z,100251.18
2018-07-10T10:33:25.463Z,100239.34
2018-07-10T10:35:55.273Z,100247.52
2018-07-10T10:38:25.106Z,100240.76
2018-07-10T10:40:55.507Z,100229.76
2018-07-10T10:43:25.884Z,100236.65
2018-07-10T10:45:56.168Z,100229.67
2018-07-10T10:48:25.873Z,100232.66
2018-07-10T10:50:55.578Z,100233.82
2018-07-10T10:53:25.510Z,100222.44
2018-07-10T10:55:55.375Z,100219.16
2018-07-10T10:58:26.016Z,100224.59
2018-07-10T11:00:55.778Z,100215.30
2018-07-10T11:03:25.460Z,100215.23
2018-07-10T11:05:55.545Z,100210.30
2018-07-10T11:08:25.374Z,100215.43
2018-07-10T11:10:55.081Z,100211.77
2018-07-10T11:13:25.468Z,100217.56
2018-07-10T11:15:55.216Z,100211.47
2018-07-10T11:18:48.322Z,100215.79
2018-07-10T11:21:38.734Z,100217.42
2018-07-10T11:24:08.895Z,100214.08
2018-07-10T11:26:43.665Z,100218.89
2018-07-10T11:29:14.253Z,100208.67
2018-07-10T11:31:43.920Z,100217.31
2018-07-10T11:34:13.619Z,100214.61
2018-07-10T11:36:43.292Z,100222.58
2018-07-10T11:39:14.239Z,100221.99
2018-07-10T11:41:49.229Z,100222.84
2018-07-10T11:44:19.090Z,100215.62
2018-07-10T11:46:49.498Z,100220.33
2018-07-10T11:49:19.185Z,100233.96
2018-07-10T11:51:49.905Z,100226.16
2018-07-10T11:54:19.592Z,100220.07
2018-07-10T11:56:49.247Z,100221.18
2018-07-10T11:59:19.010Z,100222.63
2018-07-10T12:01:48.718Z,100215.23
2018-07-10T12:04:18.354Z,100212.93
2018-07-10T12:06:53.478Z,100208.80
2018-07-10T12:09:23.221Z,100202.66
2018-07-10T12:11:53.303Z,100205.20
2018-07-10T12:14:23.013Z,100196.81
2018-07-10T12:16:52.800Z,100188.33
2018-07-10T12:19:22.977Z,100187.27
2018-07-10T12:21:53.288Z,100186.73
2018-07-10T12:24:23.244Z,100185.11
2018-07-10T12:26:53.727Z,100180.73
2018-07-10T12:29:23.468Z,100181.69
2018-07-10T12:31:53.216Z,100183.97
2018-07-10T12:34:23.147Z,100173.41
2018-07-10T12:36:52.845Z,100170.82
2018-07-10T12:39:22.193Z,100176.03
2018-07-10T12:41:51.974Z,100173.46
2018-07-10T12:44:21.906Z,100169.43
2018-07-10T12:46:52.442Z,100167.46
2018-07-10T12:49:22.403Z,100169.70
2018-07-10T12:51:52.271Z,100165.75
2018-07-10T12:54:22.022Z,100163.97
2018-07-10T12:56:52.141Z,100153.27
2018-07-10T12:59:21.887Z,100158.78
2018-07-10T13:01:51.612Z,100155.77
2018-07-10T13:04:21.387Z,100150.27
2018-07-10T13:06:51.097Z,100143.34
2018-07-10T13:09:20.536Z,100147.91
2018-07-10T13:11:50.299Z,100155.01
2018-07-10T13:14:20.133Z,100145.21
2018-07-10T13:16:49.856Z,100144.19
2018-07-10T13:19:20.879Z,100136.38
2018-07-10T13:21:51.169Z,100134.81
2018-07-10T13:24:21.007Z,100123.41
2018-07-10T13:26:51.187Z,100126.41
2018-07-10T13:29:20.907Z,100124.33
2018-07-10T13:31:50.664Z,100114.09
2018-07-10T13:34:20.386Z,100112.81
2018-07-10T13:36:50.116Z,100117.39
2018-07-10T13:39:19.817Z,100124.97
2018-07-10T13:41:49.704Z,100120.14
2018-07-10T13:44:19.049Z,100124.25
2018-07-10T13:46:48.747Z,100128.45
2018-07-10T13:49:18.473Z,100135.55
2018-07-10T13:51:48.184Z,100139.67
2018-07-10T13:54:18.212Z,100152.95
2018-07-10T13:56:48.015Z,100154.59
2018-07-10T13:59:22.125Z,100162.68
2018-07-10T14:01:52.465Z,100145.86
2018-07-10T14:04:22.304Z,100149.63
2018-07-10T14:06:51.904Z,100150.86
2018-07-10T14:09:21.743Z,100157.52
2018-07-10T14:11:51.098Z,100152.80
2018-07-10T14:14:20.860Z,100156.75
2018-07-10T14:16:50.813Z,100144.15
2018-07-10T14:19:21.261Z,100138.42
2018-07-10T14:21:51.162Z,100129.50
2018-07-10T14:24:20.892Z,100134.97
2018-07-10T14:26:50.868Z,100131.17
2018-07-10T14:29:20.627Z,100130.61
2018-07-10T14:31:50.410Z,100133.11
2018-07-10T14:34:20.206Z,100135.78
2018-07-10T14:36:50.143Z,100137.66
2018-07-10T14:39:20.172Z,100125.03
2018-07-10T14:41:52.481Z,100123.28
2018-07-10T14:44:22.320Z,100119.11
2018-07-10T14:46:52.357Z,100124.47
2018-07-10T14:49:22.357Z,100122.97
2018-07-10T14:51:53.791Z,100120.56
2018-07-10T14:54:23.464Z,100124.20
2018-07-10T14:56:54.104Z,100121.61
2018-07-10T14:59:23.836Z,100116.41
2018-07-10T15:01:53.909Z,100118.22
2018-07-10T15:04:23.687Z,100108.56
2018-07-10T15:06:53.588Z,100109.53
2018-07-10T15:09:23.350Z,100107.97
2018-07-10T15:11:53.068Z,100105.78
2018-07-10T15:14:22.921Z,100113.55
2018-07-10T15:16:57.733Z,100114.66
2018-07-10T15:19:27.497Z,100110.92
2018-07-10T15:21:57.410Z,100112.03
2018-07-10T15:24:27.185Z,100114.33
2018-07-10T15:26:56.833Z,100111.86
2018-07-10T15:29:28.419Z,100107.28
2018-07-10T15:31:59.556Z,100111.64
2018-07-10T15:34:29.305Z,100105.94
2018-07-10T15:36:58.965Z,100108.70
2018-07-10T15:39:28.804Z,100102.48
2018-07-10T15:41:58.783Z,100100.80
2018-07-10T15:44:28.432Z,100104.63
2018-07-10T15:46:58.096Z,100109.34
2018-07-10T15:49:27.814Z,100108.69
2018-07-10T15:51:57.570Z,100110.20
2018-07-10T15:54:27.853Z,100105.94
2018-07-10T15:56:57.567Z,100105.55
2018-07-10T15:59:27.225Z,100108.41
2018-07-10T16:01:56.966Z,100096.59
2018-07-10T16:04:26.696Z,100101.78
2018-07-10T16:06:56.515Z,100099.55
2018-07-10T16:09:26.390Z,100105.55
2018-07-10T16:12:07.176Z,100105.19
2018-07-10T16:14:39.600Z,100112.30
2018-07-10T16:17:27.459Z,100106.66
2018-07-10T16:20:12.030Z,100104.47
2018-07-10T16:22:43.156Z,100105.41
2018-07-10T16:25:31.756Z,100104.81
2018-07-10T16:28:09.053Z,100099.80
2018-07-10T16:30:38.833Z,100105.13
2018-07-10T16:33:09.406Z,100107.70
2018-07-10T16:35:39.168Z,100103.95
2018-07-10T16:38:11.870Z,100105.39
2018-07-10T16:40:41.584Z,100100.18
2018-07-10T16:43:16.491Z,100105.71
2018-07-10T16:45:46.237Z,100110.86
2018-07-10T16:49:27.328Z,100109.69
2018-07-10T16:52:30.950Z,100112.27
2018-07-10T16:55:00.833Z,100117.31
2018-07-10T16:57:30.540Z,100117.45
2018-07-10T17:00:00.327Z,100119.97
2018-07-10T17:02:30.395Z,100122.27
2018-07-10T17:05:00.677Z,100127.53
2018-07-10T17:07:30.587Z,100132.63
2018-07-10T17:10:00.347Z,100138.03
2018-07-10T17:12:30.085Z,100133.22
2018-07-10T17:15:01.124Z,100128.69
2018-07-10T17:17:31.386Z,100132.95
2018-07-10T17:20:01.213Z,100126.27
2018-07-10T17:22:31.360Z,100128.25
2018-07-10T17:25:01.185Z,100132.69
2018-07-10T17:27:32.963Z,100134.44
2018-07-10T17:30:04.064Z,100141.34
2018-07-10T17:32:35.720Z,100141.92
2018-07-10T17:35:05.957Z,100144.31
2018-07-10T17:37:43.252Z,100144.49
2018-07-10T17:40:13.108Z,100152.83
2018-07-10T17:42:42.743Z,100151.83
2018-07-10T17:45:17.823Z,100156.48
2018-07-10T17:47:48.394Z,100153.69
2018-07-10T17:50:18.258Z,100157.31
2018-07-10T17:52:47.968Z,100168.45
2018-07-10T17:55:17.777Z,100164.16
2018-07-10T17:57:48.097Z,100168.78
2018-07-10T18:00:17.871Z,100171.78
2018-07-10T18:02:47.690Z,100174.80
2018-07-10T18:05:17.365Z,100173.20
2018-07-10T18:07:47.038Z,100183.28
2018-07-10T18:10:16.904Z,100200.25
2018-07-10T18:12:46.654Z,100199.33
2018-07-10T18:15:16.348Z,100198.84
2018-07-10T18:17:46.050Z,100198.38
2018-07-10T18:20:16.012Z,100201.28
2018-07-10T18:22:45.935Z,100204.08
2018-07-10T18:25:15.842Z,100211.12
2018-07-10T18:27:46.063Z,100224.03
2018-07-10T18:30:15.945Z,100222.45
2018-07-10T18:32:45.770Z,100219.02
2018-07-10T18:35:15.518Z,100224.66
2018-07-10T18:37:45.388Z,100223.79
2018-07-10T18:40:15.335Z,100225.04
2018-07-10T18:42:45.195Z,100232.86
2018-07-10T18:45:14.930Z,100235.13
2018-07-10T18:47:44.859Z,100240.83
2018-07-10T18:50:14.694Z,100242.53
2018-07-10T18:52:44.485Z,100244.06
2018-07-10T18:55:14.306Z,100255.91
2018-07-10T18:58:05.569Z,100255.50
2018-07-10T19:00:49.153Z,100267.66
2018-07-10T19:03:18.942Z,100275.72
2018-07-10T19:05:54.000Z,100274.53
2018-07-10T19:08:23.754Z,100282.06
2018-07-10T19:10:54.343Z,100284.11
2018-07-10T19:13:24.414Z,100297.20
2018-07-10T19:15:54.966Z,100297.45
2018-07-10T19:18:24.743Z,100299.06
2018-07-10T19:22:05.167Z,100300.86
2018-07-10T19:24:36.578Z,100305.47
2018-07-10T19:27:06.858Z,100309.95
2018-07-10T19:29:58.029Z,100312.25
2018-07-10T19:32:27.856Z,100315.86
2018-07-10T19:35:01.209Z,100318.94
2018-07-10T19:37:33.994Z,100322.71
2018-07-10T19:40:03.722Z,100322.19
2018-07-10T19:42:34.934Z,100325.39
2018-07-10T19:45:05.966Z,100325.27
2018-07-10T19:47:35.903Z,100322.34
2018-07-10T19:50:15.270Z,100322.59
2018-07-10T19:52:52.170Z,100326.16
2018-07-10T19:55:25.358Z,100327.70
2018-07-10T19:58:10.093Z,100334.26
2018-07-10T20:00:47.002Z,100337.87
2018-07-10T20:04:00.504Z,100340.38
2018-07-10T20:06:40.922Z,100342.16
2018-07-10T20:09:15.753Z,100341.52
2018-07-10T20:12:27.942Z,100350.19
2018-07-10T20:15:29.537Z,100351.11
2018-07-10T20:18:15.453Z,100342.97
2018-07-10T20:21:01.593Z,100343.54
2018-07-10T20:23:51.599Z,100351.95
2018-07-10T20:26:37.047Z,100361.77
2018-07-10T20:29:19.278Z,100359.77
2018-07-10T20:32:07.416Z,100362.58
2018-07-10T20:34:52.482Z,100366.63
2018-07-10T20:37:29.141Z,100367.97
2018-07-10T20:39:58.970Z,100375.75
2018-07-10T20:42:40.856Z,100377.61
2018-07-10T20:45:10.160Z,100373.97
2018-07-10T20:47:52.531Z,100380.41
2018-07-10T20:50:39.582Z,100385.84
2018-07-10T20:53:29.175Z,100379.84
2018-07-10T20:56:12.531Z,100389.31
2018-07-10T20:58:52.228Z,100385.95
2018-07-10T21:01:33.241Z,100394.73
2018-07-10T21:04:14.724Z,100387.06
2018-07-10T21:07:04.473Z,100391.80
2018-07-10T21:09:55.343Z,100386.32
2018-07-10T21:12:34.516Z,100383.80
2018-07-10T21:15:08.691Z,100377.36
2018-07-10T21:18:14.285Z,100379.80
2018-07-10T21:21:01.534Z,100381.75
2018-07-10T21:23:47.350Z,100371.06
2018-07-10T21:27:05.799Z,100370.41
2018-07-10T21:29:52.194Z,100372.53
2018-07-10T21:32:38.936Z,100376.94
2018-07-10T21:35:10.278Z,100382.05
2018-07-10T21:38:54.687Z,100386.00
2018-07-10T21:41:57.855Z,100381.47
2018-07-10T21:46:43.393Z,100388.15
2018-07-10T21:49:53.109Z,100390.17
2018-07-10T21:52:23.239Z,100392.63
2018-07-10T21:54:53.181Z,100399.82
2018-07-10T21:57:33.630Z,100401.62
2018-07-10T22:00:04.163Z,100400.05
2018-07-10T22:02:34.033Z,100406.07
2018-07-10T22:05:04.004Z,100404.45
2018-07-10T22:07:34.112Z,100400.30
2018-07-10T22:10:06.008Z,100405.02
2018-07-10T22:12:43.748Z,100404.16
2018-07-10T22:15:14.000Z,100407.26
2018-07-10T22:17:44.849Z,100407.49
2018-07-10T22:20:14.704Z,100405.39
2018-07-10T22:22:44.656Z,100415.88
2018-07-10T22:25:14.562Z,100421.76
2018-07-10T22:27:44.995Z,100427.04
2018-07-10T22:30:21.640Z,100431.27
2018-07-10T22:33:02.288Z,100433.56
2018-07-10T22:35:32.156Z,100430.60
2018-07-10T22:38:02.092Z,100442.97
2018-07-10T22:40:31.761Z,100443.43
2018-07-10T22:43:01.606Z,100439.64
2018-07-10T22:45:31.421Z,100443.29
2018-07-10T22:48:01.254Z,100441.64
2018-07-10T22:50:31.028Z,100438.69
2018-07-10T22:53:02.440Z,100445.16
2018-07-10T22:55:33.451Z,100446.59
2018-07-10T22:58:06.620Z,100437.77
2018-07-10T23:00:37.651Z,100450.22
2018-07-10T23:03:22.774Z,100438.44
2018-07-10T23:05:53.591Z,100449.93
2018-07-10T23:08:34.966Z,100452.66
2018-07-10T23:11:07.319Z,100440.30
2018-07-10T23:13:40.854Z,100442.06
2018-07-10T23:16:10.648Z,100442.69
2018-07-10T23:18:41.950Z,100449.36
2018-07-10T23:21:16.296Z,100446.25
2018-07-10T23:23:46.146Z,100444.16
2018-07-10T23:26:17.609Z,100445.59
2018-07-10T23:28:52.566Z,100446.49
2018-07-10T23:31:27.323Z,100445.77
2018-07-10T23:34:10.911Z,100445.83
2018-07-10T23:36:40.601Z,100437.30
2018-07-10T23:39:11.477Z,100440.65
2018-07-10T23:42:04.185Z,100436.50
2018-07-10T23:44:38.833Z,100439.11
2018-07-10T23:47:21.138Z,100441.46
2018-07-10T23:49:58.889Z,100447.17
2018-07-10T23:52:41.779Z,100449.84
2018-07-10T23:55:12.804Z,100443.98
2018-07-10T23:57:42.621Z,100450.22
